Time;durP1;ratioP1;P1;durP2;ratioP2;P2;SDS_P1;SDS_P2;PMS_P1;PMS_P2;Temp;Humidity;BMP_temperature;BMP_pressure;BME280_temperature;BME280_humidity;BME280_pressure;Samples;Min_cycle;Max_cycle;Signal;HPM_P1;HPM_P2
2022/07/04 00:00:19;;;;;;;17.60;13.48;;;24.50;99.90;;;;;;5093066;28;20074;-73
2022/07/04 00:02:47;;;;;;;15.77;12.88;;;24.40;99.90;;;;;;5086860;28;20069;-73
2022/07/04 00:05:17;;;;;;;17.20;13.60;;;24.40;99.90;;;;;;5095293;28;20105;-73
2022/07/04 00:07:46;;;;;;;19.25;13.38;;;24.30;99.90;;;;;;5095848;28;20036;-73
2022/07/04 00:10:16;;;;;;;16.20;13.18;;;24.30;99.90;;;;;;5075305;28;20040;-73
2022/07/04 00:12:44;;;;;;;20.80;13.20;;;24.30;99.90;;;;;;5075123;28;20384;-72
2022/07/04 00:15:12;;;;;;;18.92;13.07;;;24.20;99.90;;;;;;5073660;28;20049;-73
2022/07/04 00:17:40;;;;;;;17.10;13.93;;;24.20;99.90;;;;;;5074965;28;20041;-73
2022/07/04 00:20:09;;;;;;;19.50;12.77;;;24.20;99.90;;;;;;5075076;28;20391;-72
2022/07/04 00:22:38;;;;;;;23.77;13.65;;;24.20;99.90;;;;;;5074854;28;20044;-73
2022/07/04 00:25:06;;;;;;;18.10;13.48;;;24.10;99.90;;;;;;5074819;28;20075;-73
2022/07/04 00:27:34;;;;;;;17.65;13.23;;;24.10;99.90;;;;;;5075161;28;20071;-73
2022/07/04 00:30:02;;;;;;;15.70;13.55;;;24.20;99.90;;;;;;5074834;28;20055;-73
2022/07/04 00:32:29;;;;;;;20.15;13.25;;;24.20;99.90;;;;;;5074578;28;20041;-72
2022/07/04 00:34:56;;;;;;;16.52;13.45;;;24.10;99.90;;;;;;5073921;28;20577;-73
2022/07/04 00:37:23;;;;;;;19.95;14.15;;;24.10;99.90;;;;;;5074502;28;20549;-73
2022/07/04 00:39:52;;;;;;;18.70;13.68;;;24.00;99.90;;;;;;5073988;28;20491;-73
2022/07/04 00:42:19;;;;;;;17.90;13.85;;;24.00;99.90;;;;;;5072809;28;20514;-73
2022/07/04 00:44:46;;;;;;;20.80;13.45;;;24.00;99.90;;;;;;5074414;28;20048;-73
2022/07/04 00:47:14;;;;;;;26.08;20.63;;;23.90;99.90;;;;;;5074374;28;20123;-72
2022/07/04 00:49:41;;;;;;;26.20;20.38;;;23.90;99.90;;;;;;5074430;28;20483;-73
2022/07/04 00:52:08;;;;;;;31.38;23.85;;;23.80;99.90;;;;;;5074355;28;20068;-73
2022/07/04 00:54:36;;;;;;;19.88;13.98;;;23.80;99.90;;;;;;5073632;28;20040;-72
2022/07/04 00:57:05;;;;;;;15.82;12.95;;;23.80;99.90;;;;;;5074617;28;20452;-72
2022/07/04 00:59:32;;;;;;;19.15;13.75;;;23.70;99.90;;;;;;5074516;28;20040;-72
2022/07/04 01:02:00;;;;;;;16.02;13.43;;;23.70;99.90;;;;;;5083589;28;20040;-71
2022/07/04 01:04:27;;;;;;;15.00;11.68;;;23.70;99.90;;;;;;5085458;28;20040;-71
2022/07/04 01:06:55;;;;;;;17.63;12.00;;;23.60;99.90;;;;;;5093421;28;20118;-73
2022/07/04 01:09:22;;;;;;;14.20;12.45;;;23.50;99.90;;;;;;5083587;28;20036;-73
2022/07/04 01:11:51;;;;;;;14.00;12.48;;;23.40;99.90;;;;;;5074161;28;20462;-73
2022/07/04 01:14:19;;;;;;;14.73;12.93;;;23.40;99.90;;;;;;5084229;28;20041;-73
2022/07/04 01:16:47;;;;;;;15.48;12.60;;;23.40;99.90;;;;;;5093480;28;20115;-73
2022/07/04 01:19:14;;;;;;;15.80;13.23;;;23.40;99.90;;;;;;5090380;28;20549;-73
2022/07/04 01:21:43;;;;;;;15.40;12.35;;;23.40;99.90;;;;;;5079006;28;20085;-73
2022/07/04 01:24:12;;;;;;;18.67;13.10;;;23.40;99.90;;;;;;5074493;28;20097;-73
2022/07/04 01:26:39;;;;;;;18.15;13.15;;;23.30;99.90;;;;;;5081975;28;20441;-73
2022/07/04 01:29:07;;;;;;;15.70;13.63;;;23.30;99.90;;;;;;5078075;28;20094;-73
2022/07/04 01:31:34;;;;;;;15.18;13.57;;;23.30;99.90;;;;;;5085844;28;20479;-73
2022/07/04 01:34:01;;;;;;;18.50;13.55;;;23.30;99.90;;;;;;5093484;28;20056;-73
2022/07/04 01:36:28;;;;;;;15.52;13.75;;;23.30;99.90;;;;;;5081571;28;20090;-73
2022/07/04 01:38:58;;;;;;;18.02;14.23;;;23.20;99.90;;;;;;5074133;28;20041;-73
2022/07/04 01:41:26;;;;;;;16.25;13.80;;;23.00;99.90;;;;;;5073172;28;20450;-73
2022/07/04 01:43:53;;;;;;;16.63;14.35;;;23.00;99.90;;;;;;5072895;28;20044;-73
2022/07/04 01:46:20;;;;;;;18.23;14.15;;;23.00;99.90;;;;;;5075325;28;20071;-73
2022/07/04 01:48:47;;;;;;;20.20;14.07;;;23.00;99.90;;;;;;5077879;28;20032;-73
2022/07/04 01:51:15;;;;;;;21.38;14.02;;;23.00;99.90;;;;;;5080465;28;20047;-73
2022/07/04 01:53:42;;;;;;;18.13;14.18;;;22.90;99.90;;;;;;5079308;28;20043;-73
2022/07/04 01:56:10;;;;;;;16.90;12.82;;;22.90;99.90;;;;;;5080766;28;20136;-73
2022/07/04 01:58:38;;;;;;;17.50;13.82;;;22.90;99.90;;;;;;5077342;28;20085;-72
2022/07/04 02:03:50;;;;;;;17.92;13.07;;;22.90;99.90;;;;;;5081141;28;20480;-73
2022/07/04 02:06:17;;;;;;;18.30;12.68;;;22.80;99.90;;;;;;5091770;28;20047;-73
2022/07/04 02:13:00;;;;;;;16.88;13.65;;;22.70;99.90;;;;;;5081014;28;20505;-73
2022/07/04 02:14:16;;;;;;;18.27;13.32;;;22.50;99.90;;;;;;5082614;28;20044;-73
2022/07/04 02:16:43;;;;;;;19.35;13.15;;;22.50;99.90;;;;;;5081375;28;20514;-73
2022/07/04 02:19:11;;;;;;;18.65;12.85;;;22.50;99.90;;;;;;5089397;28;20047;-72
2022/07/04 02:21:38;;;;;;;16.88;12.57;;;22.50;99.90;;;;;;5072947;28;20115;-73
2022/07/04 02:24:06;;;;;;;17.63;13.27;;;22.40;99.90;;;;;;5071892;28;20044;-73
2022/07/04 02:26:35;;;;;;;15.73;12.90;;;22.30;99.90;;;;;;5075515;28;20560;-73
2022/07/04 02:29:03;;;;;;;17.45;12.82;;;22.30;99.90;;;;;;5090843;28;20105;-73
2022/07/04 02:31:30;;;;;;;16.02;12.90;;;22.20;99.90;;;;;;5080842;28;20044;-73
2022/07/04 02:33:58;;;;;;;15.40;12.93;;;22.20;99.90;;;;;;5087657;28;20040;-73
2022/07/04 02:36:25;;;;;;;14.35;11.95;;;22.10;99.90;;;;;;5077271;28;20048;-73
2022/07/04 02:38:52;;;;;;;14.15;12.70;;;22.10;99.90;;;;;;5076528;28;20029;-73
2022/07/04 02:41:19;;;;;;;14.85;12.75;;;22.10;99.90;;;;;;5076695;28;20064;-73
2022/07/04 02:43:48;;;;;;;15.30;13.00;;;22.10;99.90;;;;;;5077122;28;20479;-73
2022/07/04 02:46:15;;;;;;;16.10;13.27;;;22.10;99.90;;;;;;5086577;28;20040;-73
2022/07/04 02:48:43;;;;;;;15.48;13.35;;;22.10;99.90;;;;;;5096991;28;20097;-73
2022/07/04 02:51:10;;;;;;;14.63;13.13;;;22.10;99.90;;;;;;5079103;28;20044;-73
2022/07/04 02:53:37;;;;;;;14.32;12.13;;;22.10;99.90;;;;;;5075787;28;20040;-73
2022/07/04 02:56:05;;;;;;;16.30;12.25;;;22.10;99.90;;;;;;5077199;28;20044;-73
2022/07/04 02:58:32;;;;;;;16.73;12.65;;;22.10;99.90;;;;;;5080692;28;20070;-73
2022/07/04 03:01:02;;;;;;;15.00;12.10;;;22.10;99.90;;;;;;5083838;28;20115;-73
2022/07/04 03:03:29;;;;;;;15.00;12.82;;;22.10;99.90;;;;;;5076574;28;20119;-73
2022/07/04 03:05:56;;;;;;;13.10;11.80;;;22.20;99.90;;;;;;5076048;28;20113;-73
2022/07/04 03:08:24;;;;;;;16.38;12.10;;;22.10;99.90;;;;;;5076128;28;20036;-73
2022/07/04 03:10:51;;;;;;;13.45;12.05;;;22.10;99.90;;;;;;5074259;28;20044;-73
2022/07/04 03:13:19;;;;;;;18.33;13.18;;;22.10;99.90;;;;;;5086117;28;20054;-73
2022/07/04 03:15:46;;;;;;;18.38;12.98;;;22.20;99.90;;;;;;5096313;28;20048;-73
2022/07/04 03:18:15;;;;;;;15.88;13.00;;;22.20;99.90;;;;;;5096452;28;20051;-73
2022/07/04 03:20:42;;;;;;;19.23;12.90;;;22.10;99.90;;;;;;5086221;28;20507;-73
2022/07/04 03:23:10;;;;;;;16.83;12.38;;;22.10;99.90;;;;;;5075460;28;20480;-72
2022/07/04 03:25:38;;;;;;;18.80;14.18;;;22.20;99.90;;;;;;5076070;28;20047;-72
2022/07/04 03:28:05;;;;;;;15.48;13.38;;;22.10;99.90;;;;;;5075990;28;20036;-73
2022/07/04 03:30:32;;;;;;;20.88;14.50;;;22.00;99.90;;;;;;5076327;28;20086;-73
2022/07/04 03:33:00;;;;;;;21.50;14.82;;;22.00;99.90;;;;;;5075760;28;20110;-73
2022/07/04 03:35:29;;;;;;;17.67;14.05;;;22.00;99.90;;;;;;5098609;22;20119;-77
2022/07/04 03:37:57;;;;;;;18.48;14.57;;;21.90;99.90;;;;;;5079043;28;20040;-76
2022/07/04 03:40:26;;;;;;;20.10;15.18;;;21.90;99.90;;;;;;5093894;28;20052;-76
2022/07/04 03:42:53;;;;;;;17.13;13.90;;;21.80;99.90;;;;;;5077617;28;20040;-76
2022/07/04 03:45:20;;;;;;;23.60;14.82;;;21.90;99.90;;;;;;5075219;28;20545;-76
2022/07/04 03:47:47;;;;;;;17.23;13.65;;;21.90;99.90;;;;;;5076398;28;20128;-76
2022/07/04 03:50:15;;;;;;;20.52;13.90;;;22.00;99.90;;;;;;5076483;28;20045;-76
2022/07/04 03:52:44;;;;;;;21.02;14.48;;;22.00;99.90;;;;;;5076269;28;20044;-76
2022/07/04 03:55:11;;;;;;;21.77;15.18;;;22.00;99.90;;;;;;5076265;28;20044;-76
2022/07/04 03:57:39;;;;;;;21.70;15.18;;;22.10;99.90;;;;;;5076318;28;20040;-76
2022/07/04 04:00:09;;;;;;;21.08;15.80;;;22.10;99.90;;;;;;5076011;28;20040;-76
2022/07/04 04:02:39;;;;;;;23.23;14.45;;;22.20;99.90;;;;;;5076603;28;20572;-76
2022/07/04 04:07:55;;;;;;;16.07;14.40;;;22.30;99.90;;;;;;5076180;28;20068;-76
2022/07/04 04:10:22;;;;;;;19.50;14.82;;;22.30;99.90;;;;;;5074784;28;20437;-75
2022/07/04 04:12:49;;;;;;;15.73;13.40;;;22.30;99.90;;;;;;5075457;28;20127;-77
2022/07/04 04:15:17;;;;;;;24.88;13.35;;;22.40;99.90;;;;;;5075612;28;20044;-76
2022/07/04 04:17:45;;;;;;;14.80;13.13;;;22.50;99.90;;;;;;5074208;28;20052;-76
2022/07/04 04:20:12;;;;;;;14.63;11.50;;;22.50;99.90;;;;;;5068584;28;20496;-75
2022/07/04 04:22:39;;;;;;;13.82;11.82;;;22.60;99.90;;;;;;5070912;28;20071;-76
2022/07/04 04:25:09;;;;;;;14.18;11.50;;;22.80;99.90;;;;;;5075194;28;20045;-76
2022/07/04 04:27:37;;;;;;;15.90;11.52;;;22.90;99.90;;;;;;5074315;28;20053;-76
2022/07/04 04:30:05;;;;;;;20.23;12.35;;;22.90;99.90;;;;;;5075851;28;20463;-76
2022/07/04 04:32:32;;;;;;;16.58;13.23;;;22.90;99.90;;;;;;5077451;28;20059;-76
2022/07/04 04:35:00;;;;;;;16.38;13.00;;;23.00;99.90;;;;;;5081355;28;20047;-77
2022/07/04 04:37:27;;;;;;;19.67;12.80;;;23.00;99.90;;;;;;5074691;28;20087;-75
2022/07/04 04:39:55;;;;;;;16.73;12.10;;;23.00;99.90;;;;;;5079687;28;20094;-76
2022/07/04 04:42:24;;;;;;;15.98;12.23;;;23.10;99.90;;;;;;5095759;28;20066;-76
2022/07/04 04:44:51;;;;;;;17.08;11.50;;;23.20;99.90;;;;;;5095388;28;20041;-76
2022/07/04 04:47:19;;;;;;;19.17;12.20;;;23.40;99.90;;;;;;5082785;28;20048;-77
2022/07/04 04:49:47;;;;;;;16.40;11.52;;;23.60;99.90;;;;;;5076432;28;20090;-76
2022/07/04 04:52:14;;;;;;;13.90;11.40;;;23.80;99.90;;;;;;5074839;28;20470;-75
2022/07/04 04:54:41;;;;;;;19.05;11.35;;;23.90;99.90;;;;;;5074534;28;20041;-77
2022/07/04 04:57:08;;;;;;;13.98;11.40;;;24.40;99.90;;;;;;5075137;28;20161;-76
2022/07/04 04:59:37;;;;;;;15.75;11.80;;;24.70;99.90;;;;;;5074017;28;20427;-77
2022/07/04 05:02:05;;;;;;;12.80;10.32;;;24.70;99.90;;;;;;5074055;28;20044;-77
2022/07/04 05:04:32;;;;;;;13.82;9.90;;;24.70;99.90;;;;;;5074212;28;20094;-76
2022/07/04 05:06:59;;;;;;;12.77;10.20;;;24.60;99.90;;;;;;5076982;28;20051;-76
2022/07/04 05:09:27;;;;;;;13.65;9.80;;;24.50;99.90;;;;;;5064165;28;20091;-75
2022/07/04 05:11:54;;;;;;;12.48;10.20;;;24.40;99.90;;;;;;5069652;28;20028;-76
2022/07/04 05:14:22;;;;;;;13.43;10.68;;;24.40;99.90;;;;;;5074636;28;20045;-76
2022/07/04 05:16:50;;;;;;;12.18;9.80;;;24.50;99.90;;;;;;5075631;28;20045;-74
2022/07/04 05:19:18;;;;;;;13.27;10.68;;;24.60;99.90;;;;;;5082621;28;20032;-76
2022/07/04 05:21:45;;;;;;;16.05;10.82;;;24.60;99.90;;;;;;5077888;28;20045;-76
2022/07/04 05:24:12;;;;;;;16.25;11.80;;;24.60;99.90;;;;;;5094681;28;20048;-76
2022/07/04 05:26:40;;;;;;;15.60;11.73;;;24.70;99.90;;;;;;5096528;28;20044;-76
2022/07/04 05:29:07;;;;;;;15.50;11.77;;;24.80;99.90;;;;;;5066923;28;20056;-76
2022/07/04 05:31:35;;;;;;;14.95;12.32;;;25.20;99.90;;;;;;5070462;28;20047;-77
2022/07/04 05:34:03;;;;;;;17.90;12.15;;;25.50;99.90;;;;;;5077115;28;20503;-76
2022/07/04 05:36:31;;;;;;;19.35;12.05;;;25.40;99.90;;;;;;5068061;28;20087;-78
2022/07/04 05:38:59;;;;;;;20.90;12.60;;;25.50;99.90;;;;;;5081004;28;20033;-78
2022/07/04 05:41:26;;;;;;;20.20;14.77;;;25.60;99.90;;;;;;5068645;28;20052;-77
2022/07/04 05:43:53;;;;;;;18.55;11.23;;;25.90;99.90;;;;;;5078324;28;20044;-77
2022/07/04 05:46:21;;;;;;;15.90;11.60;;;26.40;99.90;;;;;;5058102;28;20048;-76
2022/07/04 05:48:48;;;;;;;18.88;11.00;;;27.50;99.90;;;;;;5068853;28;20048;-77
2022/07/04 05:51:17;;;;;;;19.63;12.07;;;28.20;99.90;;;;;;5079491;28;20438;-76
2022/07/04 05:53:44;;;;;;;20.60;15.50;;;28.80;99.90;;;;;;5069785;28;20051;-77
2022/07/04 05:56:11;;;;;;;17.25;15.30;;;29.00;99.90;;;;;;5073611;28;20111;-75
2022/07/04 05:58:39;;;;;;;15.25;10.45;;;29.20;99.90;;;;;;5073293;28;20036;-76
2022/07/04 06:01:06;;;;;;;13.65;10.00;;;28.90;99.90;;;;;;5073774;28;20071;-77
2022/07/04 06:03:36;;;;;;;18.20;11.13;;;28.30;99.90;;;;;;5073155;28;20510;-75
2022/07/04 06:06:04;;;;;;;16.20;11.27;;;28.30;99.90;;;;;;5074406;28;20127;-75
2022/07/04 06:08:33;;;;;;;14.30;11.23;;;27.90;99.90;;;;;;5071690;28;20045;-76
2022/07/04 06:11:00;;;;;;;15.00;10.73;;;28.40;99.90;;;;;;5072975;28;20040;-77
2022/07/04 06:13:28;;;;;;;14.75;11.13;;;28.90;99.90;;;;;;5072922;28;20144;-77
2022/07/04 06:15:56;;;;;;;17.50;11.20;;;29.20;99.90;;;;;;5074109;28;20032;-76
2022/07/04 06:18:23;;;;;;;20.70;12.02;;;29.20;99.90;;;;;;5075994;28;20073;-76
2022/07/04 06:20:51;;;;;;;19.40;12.60;;;28.90;99.90;;;;;;5073872;28;20039;-76
2022/07/04 06:23:18;;;;;;;18.45;12.65;;;28.70;99.90;;;;;;5056110;28;20061;-76
2022/07/04 06:25:47;;;;;;;13.98;12.02;;;28.90;99.90;;;;;;5064858;28;20048;-77
2022/07/04 06:28:14;;;;;;;19.58;12.70;;;29.10;99.90;;;;;;5086035;28;20521;-77
2022/07/04 06:30:41;;;;;;;17.73;13.05;;;29.30;99.90;;;;;;5084808;28;20044;-77
2022/07/04 06:33:09;;;;;;;23.38;17.98;;;29.70;99.90;;;;;;5085458;28;20076;-75
2022/07/04 06:35:54;;;;;;;15.23;12.82;;;29.70;99.90;;;;;;5085616;28;20049;-76
2022/07/04 06:38:22;;;;;;;20.30;13.20;;;29.90;99.90;;;;;;5073427;28;20045;-75
2022/07/04 06:40:52;;;;;;;15.85;13.55;;;30.20;99.90;;;;;;5077435;28;20032;-74
2022/07/04 06:43:20;;;;;;;18.92;13.00;;;30.30;99.90;;;;;;5064487;28;20052;-75
2022/07/04 06:45:47;;;;;;;16.02;13.27;;;30.40;99.90;;;;;;5073151;28;20098;-76
2022/07/04 06:48:15;;;;;;;20.25;13.07;;;30.40;99.90;;;;;;5073327;28;20470;-76
2022/07/04 06:50:42;;;;;;;21.15;13.82;;;30.50;99.90;;;;;;5072663;28;20395;-76
2022/07/04 06:53:11;;;;;;;19.05;14.73;;;30.40;99.90;;;;;;5072098;28;20037;-76
2022/07/04 06:55:39;;;;;;;16.67;13.20;;;30.30;99.90;;;;;;5072188;28;20055;-77
2022/07/04 06:58:09;;;;;;;16.25;13.45;;;30.00;99.90;;;;;;5073088;28;20040;-74
2022/07/04 07:00:36;;;;;;;22.55;15.38;;;29.70;99.90;;;;;;5071562;28;20047;-77
2022/07/04 07:03:05;;;;;;;20.88;15.45;;;29.50;99.90;;;;;;5072568;28;20045;-75
2022/07/04 07:05:32;;;;;;;19.45;15.30;;;29.70;99.90;;;;;;5071700;28;20104;-76
2022/07/04 07:07:59;;;;;;;21.50;16.17;;;29.70;99.90;;;;;;5073240;28;20052;-77
2022/07/04 07:10:27;;;;;;;21.80;16.42;;;29.90;99.90;;;;;;5073436;28;20044;-75
2022/07/04 07:12:54;;;;;;;19.45;15.90;;;30.00;99.90;;;;;;5072452;28;20126;-76
2022/07/04 07:15:23;;;;;;;35.55;16.58;;;30.30;99.90;;;;;;5073986;28;20427;-77
2022/07/04 07:17:50;;;;;;;26.67;16.45;;;30.60;99.90;;;;;;5076713;28;20047;-76
2022/07/04 07:20:17;;;;;;;24.50;15.93;;;30.90;99.90;;;;;;5070149;28;20131;-76
2022/07/04 07:22:45;;;;;;;16.95;14.73;;;31.00;99.90;;;;;;5056253;28;20051;-77
2022/07/04 07:25:13;;;;;;;21.27;16.00;;;31.20;99.90;;;;;;5056857;28;20128;-75
2022/07/04 07:27:41;;;;;;;20.05;18.02;;;31.10;99.90;;;;;;5057530;28;20041;-77
2022/07/04 07:30:09;;;;;;;31.08;17.83;;;31.20;99.90;;;;;;5058177;28;20037;-76
2022/07/04 07:32:38;;;;;;;21.20;14.93;;;31.20;99.90;;;;;;5057213;28;20041;-75
2022/07/04 07:35:06;;;;;;;20.60;14.98;;;31.10;99.90;;;;;;5057081;28;20099;-77
2022/07/04 07:37:34;;;;;;;23.08;14.55;;;31.30;99.90;;;;;;5059728;28;20033;-76
2022/07/04 07:40:02;;;;;;;18.55;13.82;;;31.60;99.90;;;;;;5058599;28;20048;-76
2022/07/04 07:42:29;;;;;;;19.73;14.23;;;31.80;99.90;;;;;;5056134;28;20072;-76
2022/07/04 07:44:57;;;;;;;18.15;13.68;;;31.70;99.90;;;;;;5054684;28;20049;-77
2022/07/04 07:47:24;;;;;;;17.13;13.02;;;31.30;99.90;;;;;;5056056;28;20040;-75
2022/07/04 07:49:53;;;;;;;15.57;11.50;;;31.20;99.90;;;;;;5056628;28;20064;-76
2022/07/04 07:52:20;;;;;;;18.50;12.48;;;31.20;99.90;;;;;;5056155;28;20045;-77
2022/07/04 07:54:48;;;;;;;18.35;12.40;;;31.20;99.90;;;;;;5055969;28;20041;-75
2022/07/04 07:57:15;;;;;;;20.38;12.80;;;31.40;99.90;;;;;;5055941;28;20049;-77
2022/07/04 07:59:42;;;;;;;15.98;12.60;;;31.60;99.90;;;;;;5054605;28;20408;-76
2022/07/04 08:02:10;;;;;;;18.05;14.95;;;31.70;99.90;;;;;;5055548;28;20079;-76
2022/07/04 08:04:38;;;;;;;15.80;14.02;;;31.80;99.90;;;;;;5055726;28;20040;-77
2022/07/04 08:07:09;;;;;;;16.13;12.40;;;32.50;99.90;;;;;;5055336;28;20040;-75
2022/07/04 08:09:37;;;;;;;23.10;12.43;;;32.80;99.90;;;;;;5054251;28;20496;-75
2022/07/04 08:12:07;;;;;;;17.88;12.88;;;33.10;99.90;;;;;;5055186;28;20477;-77
2022/07/04 08:14:36;;;;;;;19.63;12.07;;;33.30;99.90;;;;;;5055346;28;20045;-77
2022/07/04 08:17:05;;;;;;;16.10;11.80;;;33.50;99.90;;;;;;5055924;28;20071;-75
2022/07/04 08:19:32;;;;;;;23.30;11.55;;;33.50;99.90;;;;;;5055744;28;20072;-76
2022/07/04 08:22:00;;;;;;;17.17;11.85;;;33.50;99.90;;;;;;5075330;28;20048;-75
2022/07/04 08:24:29;;;;;;;15.23;10.88;;;33.30;99.90;;;;;;5075118;28;20040;-76
2022/07/04 08:26:57;;;;;;;17.73;11.25;;;33.00;99.90;;;;;;5075592;28;20090;-77
2022/07/04 08:29:27;;;;;;;14.73;10.48;;;33.20;99.90;;;;;;5075415;28;20045;-76
2022/07/04 08:31:54;;;;;;;14.18;11.00;;;33.20;99.90;;;;;;5075209;28;20515;-76
2022/07/04 08:34:22;;;;;;;17.77;11.95;;;33.40;99.90;;;;;;5074789;28;20047;-77
2022/07/04 08:36:49;;;;;;;15.70;11.07;;;33.10;99.90;;;;;;5074989;28;20063;-76
2022/07/04 08:39:17;;;;;;;17.17;10.50;;;33.00;99.90;;;;;;5075117;28;20044;-77
2022/07/04 08:41:45;;;;;;;14.43;10.63;;;32.60;99.90;;;;;;5075513;28;20040;-76
2022/07/04 08:44:13;;;;;;;17.15;12.13;;;32.70;99.90;;;;;;5075150;28;20071;-75
2022/07/04 08:46:42;;;;;;;17.20;10.77;;;32.80;99.90;;;;;;5075119;28;20041;-75
2022/07/04 08:49:16;;;;;;;17.48;10.77;;;32.70;99.90;;;;;;5076869;28;20056;-76
2022/07/04 08:51:50;;;;;;;19.15;11.98;;;32.50;99.90;;;;;;5074531;28;20037;-76
2022/07/04 08:59:51;;;;;;;18.42;10.23;;;32.50;99.90;;;;;;5075053;28;20048;-76
2022/07/04 09:02:21;;;;;;;15.50;10.93;;;32.60;99.90;;;;;;5075168;28;20094;-76
2022/07/04 09:04:49;;;;;;;20.73;15.90;;;32.30;99.90;;;;;;5075634;28;20052;-77
2022/07/04 09:07:17;;;;;;;17.88;11.52;;;32.40;99.90;;;;;;5075598;28;20116;-76
2022/07/04 09:09:46;;;;;;;22.50;12.75;;;32.60;99.90;;;;;;5076205;28;20090;-75
2022/07/04 09:12:14;;;;;;;19.13;12.27;;;32.90;99.90;;;;;;5089314;28;20044;-77
2022/07/04 09:14:42;;;;;;;16.80;11.93;;;32.70;99.90;;;;;;5093743;28;20056;-78
2022/07/04 09:17:09;;;;;;;15.02;8.50;;;33.10;98.90;;;;;;5094202;28;20059;-76
2022/07/04 09:19:37;;;;;;;13.52;7.00;;;33.00;97.10;;;;;;5095346;28;20049;-76
2022/07/04 09:22:06;;;;;;;8.77;5.88;;;32.80;93.70;;;;;;5066164;28;20036;-76
2022/07/04 09:24:48;;;;;;;11.65;6.35;;;32.60;92.10;;;;;;5055608;28;20360;-76
2022/07/04 09:27:32;;;;;;;9.73;6.63;;;32.60;91.90;;;;;;5054477;28;20041;-76
2022/07/04 09:30:00;;;;;;;14.40;7.68;;;32.90;91.70;;;;;;5055201;28;20053;-76
2022/07/04 09:32:38;;;;;;;16.13;6.82;;;33.30;91.10;;;;;;5055121;28;20110;-77
2022/07/04 09:35:07;;;;;;;10.80;6.97;;;33.70;90.40;;;;;;5062000;28;20102;-75
2022/07/04 09:37:36;;;;;;;15.45;6.60;;;33.70;90.10;;;;;;5094017;22;20041;-72
2022/07/04 09:40:05;;;;;;;9.15;6.43;;;33.50;89.00;;;;;;5071917;28;20052;-71
2022/07/04 09:42:39;;;;;;;13.40;6.68;;;33.50;87.50;;;;;;5073267;28;20075;-71
2022/07/04 09:45:08;;;;;;;16.77;7.03;;;33.40;87.70;;;;;;5073145;28;20037;-71
2022/07/04 09:47:36;;;;;;;18.35;7.30;;;33.50;88.30;;;;;;5073408;28;20121;-71
2022/07/04 09:50:06;;;;;;;14.13;6.88;;;33.70;86.60;;;;;;5072406;28;20048;-71
2022/07/04 09:52:44;;;;;;;10.68;6.00;;;33.70;86.10;;;;;;5073278;28;20048;-71
2022/07/04 09:55:11;;;;;;;15.38;6.80;;;33.40;85.60;;;;;;5073253;28;20040;-71
2022/07/04 09:57:45;;;;;;;14.70;7.38;;;33.30;85.70;;;;;;5072902;28;20044;-71
2022/07/04 10:00:21;;;;;;;11.20;6.22;;;33.40;86.30;;;;;;5073188;28;20127;-71
2022/07/04 10:02:49;;;;;;;11.00;6.88;;;33.40;85.10;;;;;;5071393;28;20051;-71
2022/07/04 10:05:25;;;;;;;11.05;6.47;;;33.10;85.90;;;;;;5073186;28;20410;-71
2022/07/04 10:07:54;;;;;;;11.48;6.70;;;32.90;87.60;;;;;;5072908;28;20067;-71
2022/07/04 10:10:31;;;;;;;11.95;7.30;;;32.60;90.00;;;;;;5072934;28;20033;-71
2022/07/04 10:13:02;;;;;;;12.35;6.82;;;32.90;90.10;;;;;;5073114;28;20051;-71
2022/07/04 10:15:30;;;;;;;14.02;7.78;;;32.90;87.70;;;;;;5073137;28;20403;-71
2022/07/04 10:17:57;;;;;;;15.73;7.70;;;33.00;87.90;;;;;;5073930;28;20048;-71
2022/07/04 10:20:25;;;;;;;12.45;7.75;;;33.30;88.00;;;;;;5073221;28;20094;-71
2022/07/04 10:22:52;;;;;;;10.88;6.57;;;33.20;88.60;;;;;;5073319;28;20045;-71
2022/07/04 10:25:20;;;;;;;12.15;7.22;;;33.00;88.10;;;;;;5073284;28;20121;-70
2022/07/04 10:27:50;;;;;;;13.20;8.70;;;32.90;89.20;;;;;;5073018;28;20449;-71
2022/07/04 10:30:23;;;;;;;16.98;7.95;;;32.90;89.40;;;;;;5072920;28;20492;-70
2022/07/04 10:32:51;;;;;;;13.07;7.72;;;32.90;90.30;;;;;;5071096;28;20072;-71
2022/07/04 10:35:39;;;;;;;16.63;14.63;;;33.00;90.40;;;;;;5072445;28;20045;-71
2022/07/04 10:38:07;;;;;;;15.10;9.85;;;33.10;90.70;;;;;;5072542;28;20380;-71
2022/07/04 10:40:43;;;;;;;12.20;8.75;;;33.10;91.10;;;;;;5071475;28;20040;-72
2022/07/04 10:43:47;;;;;;;11.52;8.73;;;33.20;91.60;;;;;;5072528;28;20052;-72
2022/07/04 10:46:36;;;;;;;11.63;8.30;;;33.40;91.60;;;;;;5054828;28;20475;-72
2022/07/04 10:49:05;;;;;;;14.20;8.77;;;33.40;91.50;;;;;;5073348;28;20037;-72
2022/07/04 10:51:39;;;;;;;11.70;9.23;;;33.40;91.70;;;;;;5076534;28;20123;-71
2022/07/04 10:54:09;;;;;;;13.27;10.02;;;33.20;92.20;;;;;;5074978;28;20507;-71
2022/07/04 10:56:39;;;;;;;17.13;9.23;;;33.20;92.30;;;;;;5076133;28;20087;-71
2022/07/04 10:59:14;;;;;;;14.65;9.30;;;33.50;92.20;;;;;;5076444;28;20049;-72
2022/07/04 11:01:51;;;;;;;11.75;9.05;;;33.30;91.60;;;;;;5077431;28;20064;-71
2022/07/04 11:04:52;;;;;;;11.70;9.95;;;32.80;91.70;;;;;;5077325;28;20487;-70
2022/07/04 11:07:20;;;;;;;11.07;8.43;;;32.50;91.50;;;;;;5078507;28;20070;-72
2022/07/04 11:09:49;;;;;;;15.27;8.50;;;32.30;91.90;;;;;;5078341;28;20052;-71
2022/07/04 11:12:16;;;;;;;10.10;8.35;;;32.30;91.60;;;;;;5076958;28;20572;-72
2022/07/04 11:14:44;;;;;;;10.68;8.75;;;32.20;91.70;;;;;;5076428;28;20040;-70
2022/07/04 11:17:14;;;;;;;11.93;9.30;;;32.60;91.50;;;;;;5076533;28;20052;-71
2022/07/04 11:19:43;;;;;;;9.95;8.60;;;32.50;91.40;;;;;;5075995;28;20045;-73
2022/07/04 11:22:11;;;;;;;12.57;9.55;;;32.50;91.70;;;;;;5076445;28;20098;-72
2022/07/04 11:24:38;;;;;;;12.20;9.60;;;32.60;91.50;;;;;;5073969;28;20108;-70
2022/07/04 11:27:08;;;;;;;15.15;9.52;;;32.60;91.70;;;;;;5067736;28;20453;-71
2022/07/04 11:29:36;;;;;;;12.05;9.25;;;32.70;91.20;;;;;;5065086;28;20491;-71
2022/07/04 11:32:07;;;;;;;12.05;9.63;;;32.60;91.30;;;;;;5073947;28;20040;-72
2022/07/04 11:34:36;;;;;;;19.08;10.20;;;32.90;91.20;;;;;;5075831;28;20102;-72
2022/07/04 11:37:04;;;;;;;15.48;9.68;;;33.00;91.10;;;;;;5075291;28;20465;-72
2022/07/04 11:39:31;;;;;;;12.30;9.70;;;32.90;90.60;;;;;;5075951;28;20045;-72
2022/07/04 11:47:35;;;;;;;18.77;11.80;;;32.60;91.80;;;;;;5056380;28;20037;-71
2022/07/04 11:50:06;;;;;;;15.35;11.93;;;32.60;91.60;;;;;;5059761;28;20339;-71
2022/07/04 11:52:41;;;;;;;21.60;19.10;;;32.50;92.00;;;;;;5055993;28;20045;-73
2022/07/04 11:55:10;;;;;;;18.75;11.90;;;32.90;92.10;;;;;;5057059;28;20446;-73
2022/07/04 11:57:38;;;;;;;15.40;12.15;;;33.10;91.60;;;;;;5055568;28;20403;-72
2022/07/04 12:00:08;;;;;;;18.45;13.93;;;32.90;91.50;;;;;;5059069;28;20429;-73
2022/07/04 12:02:36;;;;;;;27.55;12.60;;;32.80;91.90;;;;;;5072816;28;20033;-72
2022/07/04 12:05:07;;;;;;;14.32;11.63;;;33.10;92.00;;;;;;5072487;28;20101;-72
2022/07/04 12:07:37;;;;;;;14.38;10.27;;;33.10;91.50;;;;;;5068618;28;20533;-72
2022/07/04 12:10:13;;;;;;;14.05;9.32;;;33.00;91.90;;;;;;5072653;28;20541;-72
2022/07/04 12:12:53;;;;;;;12.20;9.90;;;32.70;92.70;;;;;;5055616;28;20041;-71
2022/07/04 12:15:22;;;;;;;17.85;11.43;;;32.60;92.70;;;;;;5074658;28;20453;-72
2022/07/04 12:17:53;;;;;;;13.68;11.38;;;32.60;92.90;;;;;;5075400;28;20068;-71
2022/07/04 12:20:23;;;;;;;18.65;11.70;;;32.80;93.20;;;;;;5072037;28;20123;-71
2022/07/04 12:22:54;;;;;;;15.02;12.23;;;32.90;93.20;;;;;;5074930;28;20082;-71
2022/07/04 12:25:24;;;;;;;14.25;12.10;;;32.60;93.30;;;;;;5072492;28;20098;-71
2022/07/04 12:27:57;;;;;;;16.63;12.05;;;32.50;93.50;;;;;;5060591;28;20052;-71
2022/07/04 12:30:25;;;;;;;17.70;12.52;;;32.50;93.10;;;;;;5073953;28;20108;-71
2022/07/04 12:32:54;;;;;;;16.48;13.05;;;32.40;92.80;;;;;;5064735;28;20044;-70
2022/07/04 12:35:43;;;;;;;21.48;18.85;;;32.40;93.20;;;;;;5073376;28;20045;-71
2022/07/04 12:38:12;;;;;;;19.25;13.38;;;32.80;92.80;;;;;;5072795;28;20044;-70
2022/07/04 12:40:52;;;;;;;14.88;13.30;;;33.20;92.80;;;;;;5069630;28;20123;-70
2022/07/04 12:43:20;;;;;;;17.58;13.68;;;33.50;92.20;;;;;;5074048;28;20051;-70
2022/07/04 12:45:49;;;;;;;18.35;15.60;;;33.70;91.70;;;;;;5063423;28;20426;-71
2022/07/04 12:48:23;;;;;;;16.40;14.77;;;33.80;91.10;;;;;;5070871;28;20068;-72
2022/07/04 12:50:53;;;;;;;22.00;14.73;;;33.90;89.90;;;;;;5063880;28;20146;-73
2022/07/04 12:53:21;;;;;;;22.38;14.15;;;33.80;91.00;;;;;;5072617;28;20422;-70
2022/07/04 12:55:49;;;;;;;19.08;13.95;;;33.70;91.40;;;;;;5065983;28;20118;-71